Time;durP1;ratioP1;P1;durP2;ratioP2;P2;SDS_P1;SDS_P2;PMS_P1;PMS_P2;Temp;Humidity;BMP_temperature;BMP_pressure;BME280_temperature;BME280_humidity;BME280_pressure;Samples;Min_cycle;Max_cycle;Signal;HPM_P1;HPM_P2
2021/06/13 00:00:53;;;;;;;10.27;6.23;;;13.30;99.90;;;;;;5082885;28;20200;-65
2021/06/13 00:03:21;;;;;;;6.60;5.93;;;13.20;99.90;;;;;;5083661;28;20191;-66
2021/06/13 00:05:49;;;;;;;7.73;6.30;;;13.20;99.90;;;;;;5083211;28;20200;-66
2021/06/13 00:08:17;;;;;;;7.33;6.57;;;13.20;99.90;;;;;;5076853;28;20366;-66
2021/06/13 00:10:45;;;;;;;8.03;6.60;;;13.10;99.90;;;;;;5083732;28;20200;-65
2021/06/13 00:13:13;;;;;;;7.00;6.30;;;13.10;99.90;;;;;;5056642;28;20560;-66
2021/06/13 00:15:41;;;;;;;8.87;6.53;;;13.10;99.90;;;;;;5059572;28;20203;-65
2021/06/13 00:18:10;;;;;;;8.17;6.20;;;13.00;99.90;;;;;;5082956;28;20364;-65
2021/06/13 00:20:38;;;;;;;10.97;6.43;;;13.00;99.90;;;;;;5076011;28;20188;-66
2021/06/13 00:23:06;;;;;;;10.83;6.70;;;12.90;99.90;;;;;;5083270;28;20372;-66
2021/06/13 00:25:34;;;;;;;9.83;6.57;;;12.90;99.90;;;;;;5078848;28;20188;-65
2021/06/13 00:28:02;;;;;;;9.53;6.73;;;12.90;99.90;;;;;;5079949;28;20259;-65
2021/06/13 00:30:30;;;;;;;8.10;6.40;;;12.90;99.90;;;;;;5080020;28;20215;-64
2021/06/13 00:32:58;;;;;;;8.53;6.53;;;12.80;99.90;;;;;;5082860;28;20193;-66
2021/06/13 00:35:28;;;;;;;7.27;6.47;;;12.80;99.90;;;;;;5077993;28;20449;-66
2021/06/13 00:37:57;;;;;;;9.57;6.93;;;12.80;99.90;;;;;;5080512;28;20196;-65
2021/06/13 00:40:29;;;;;;;10.20;7.30;;;12.70;99.90;;;;;;5076983;28;20192;-65
2021/06/13 00:42:57;;;;;;;10.00;7.73;;;12.70;99.90;;;;;;5082657;28;20188;-66
2021/06/13 00:45:26;;;;;;;12.80;8.10;;;12.60;99.90;;;;;;5080440;28;20294;-65
2021/06/13 00:47:54;;;;;;;12.43;7.70;;;12.60;99.90;;;;;;5083334;28;20198;-66
2021/06/13 00:50:29;;;;;;;9.43;7.80;;;12.60;99.90;;;;;;5064344;28;20207;-65
2021/06/13 00:52:58;;;;;;;14.73;7.83;;;12.60;99.90;;;;;;5079113;28;20191;-65
2021/06/13 00:55:27;;;;;;;10.30;8.00;;;12.50;99.90;;;;;;5081175;28;20262;-65
2021/06/13 00:57:55;;;;;;;10.87;7.70;;;12.50;99.90;;;;;;5065902;28;20448;-65
2021/06/13 01:00:23;;;;;;;14.97;7.80;;;12.50;99.90;;;;;;5076612;28;20206;-65
2021/06/13 01:03:10;;;;;;;11.57;8.07;;;12.50;99.90;;;;;;5081373;28;20184;-65
2021/06/13 01:05:39;;;;;;;11.37;8.10;;;12.40;99.90;;;;;;5077986;28;20200;-65
2021/06/13 01:08:30;;;;;;;12.50;7.60;;;12.40;99.90;;;;;;5082230;28;20191;-65
2021/06/13 01:11:10;;;;;;;11.93;8.37;;;12.40;99.90;;;;;;5079226;28;20269;-65
2021/06/13 01:13:47;;;;;;;13.47;8.67;;;12.30;99.90;;;;;;5081838;28;20229;-65
2021/06/13 01:16:24;;;;;;;13.70;8.20;;;12.30;99.90;;;;;;5080909;28;20383;-65
2021/06/13 01:18:57;;;;;;;13.30;9.07;;;12.30;99.90;;;;;;5076743;28;20355;-65
2021/06/13 01:21:33;;;;;;;11.83;8.60;;;12.30;99.90;;;;;;5081996;28;20188;-65
2021/06/13 01:24:17;;;;;;;9.53;8.10;;;12.20;99.90;;;;;;5081503;28;20330;-65
2021/06/13 01:27:26;;;;;;;10.03;8.73;;;12.20;99.90;;;;;;5080696;28;20180;-65
2021/06/13 01:30:00;;;;;;;12.93;8.30;;;12.20;99.90;;;;;;5082635;28;20180;-65
2021/06/13 01:32:31;;;;;;;9.73;8.07;;;12.10;99.90;;;;;;5080849;28;20187;-65
2021/06/13 01:35:01;;;;;;;9.90;7.90;;;12.10;99.90;;;;;;5081995;28;20191;-65
2021/06/13 01:37:33;;;;;;;12.27;8.43;;;12.10;99.90;;;;;;5081560;28;20180;-65
2021/06/13 01:40:06;;;;;;;12.47;8.30;;;12.10;99.90;;;;;;5079602;28;20265;-65
2021/06/13 01:42:36;;;;;;;10.00;8.13;;;12.10;99.90;;;;;;5079156;28;20192;-65
2021/06/13 01:45:13;;;;;;;11.77;8.83;;;12.00;99.90;;;;;;5080891;28;20172;-65
2021/06/13 01:47:42;;;;;;;10.93;8.60;;;12.00;99.90;;;;;;5081073;28;20325;-65
2021/06/13 01:50:11;;;;;;;14.30;8.73;;;11.90;99.90;;;;;;5083184;28;20380;-65
2021/06/13 01:52:39;;;;;;;11.87;9.30;;;11.90;99.90;;;;;;5082136;28;20188;-65
2021/06/13 01:55:09;;;;;;;12.77;8.67;;;11.90;99.90;;;;;;5082070;28;20200;-65
2021/06/13 01:57:41;;;;;;;11.17;8.50;;;11.80;99.90;;;;;;5078335;28;20224;-65
2021/06/13 02:00:14;;;;;;;18.90;9.70;;;11.80;99.90;;;;;;5083038;28;20295;-65
2021/06/13 02:02:44;;;;;;;14.93;9.53;;;11.70;99.90;;;;;;5082263;28;20188;-65
2021/06/13 02:05:13;;;;;;;10.53;8.50;;;11.70;99.90;;;;;;5081184;28;20255;-65
2021/06/13 02:07:43;;;;;;;10.97;8.50;;;11.60;99.90;;;;;;5080786;28;20184;-65
2021/06/13 02:10:14;;;;;;;10.63;8.20;;;11.50;99.90;;;;;;5079849;28;20192;-65
2021/06/13 02:12:44;;;;;;;12.30;8.60;;;11.60;99.90;;;;;;5077284;28;20184;-66
2021/06/13 02:15:17;;;;;;;10.33;8.03;;;11.60;99.90;;;;;;5083274;28;20354;-65
2021/06/13 02:17:49;;;;;;;14.20;8.47;;;11.60;99.90;;;;;;5084716;28;20198;-65
2021/06/13 02:20:20;;;;;;;12.07;8.67;;;11.60;99.90;;;;;;5080398;28;20452;-65
2021/06/13 02:22:49;;;;;;;16.20;9.20;;;11.60;99.90;;;;;;5082729;28;20184;-65
2021/06/13 02:25:20;;;;;;;15.50;9.10;;;11.50;99.90;;;;;;5086274;28;20188;-65
2021/06/13 02:27:51;;;;;;;15.60;10.00;;;11.50;99.90;;;;;;5066192;28;20188;-65
2021/06/13 02:30:23;;;;;;;19.13;10.10;;;11.50;99.90;;;;;;5078548;28;20194;-65
2021/06/13 02:32:51;;;;;;;18.63;9.43;;;11.50;99.90;;;;;;5084166;28;20431;-67
2021/06/13 02:35:19;;;;;;;19.83;9.73;;;11.50;99.90;;;;;;5085314;28;20168;-66
2021/06/13 02:37:47;;;;;;;14.23;11.17;;;11.50;99.90;;;;;;5084083;28;20229;-66
2021/06/13 02:40:17;;;;;;;15.77;10.80;;;11.40;99.90;;;;;;5085791;28;20204;-66
2021/06/13 02:42:45;;;;;;;15.63;10.70;;;11.50;99.90;;;;;;5081707;28;20180;-66
2021/06/13 02:45:17;;;;;;;16.70;11.40;;;11.40;99.90;;;;;;5085640;28;20242;-66
2021/06/13 02:47:46;;;;;;;14.13;9.67;;;11.40;99.90;;;;;;5082909;28;20192;-66
2021/06/13 02:50:15;;;;;;;9.70;8.60;;;11.40;99.90;;;;;;5084212;28;20198;-66
2021/06/13 02:52:47;;;;;;;16.57;9.73;;;11.30;99.90;;;;;;5081408;28;20180;-66
2021/06/13 02:55:19;;;;;;;15.93;9.30;;;11.30;99.90;;;;;;5083631;28;20214;-66
2021/06/13 02:57:52;;;;;;;13.37;9.93;;;11.30;99.90;;;;;;5083462;28;20238;-66
2021/06/13 03:00:23;;;;;;;13.13;9.83;;;11.20;99.90;;;;;;5085898;28;20184;-66
2021/06/13 03:02:54;;;;;;;12.60;9.70;;;11.20;99.90;;;;;;5084156;28;20203;-66
2021/06/13 03:05:26;;;;;;;12.00;10.30;;;11.20;99.90;;;;;;5081487;28;20179;-66
2021/06/13 03:07:55;;;;;;;12.43;9.93;;;11.20;99.90;;;;;;5083055;28;20275;-66
2021/06/13 03:10:24;;;;;;;11.37;9.80;;;11.20;99.90;;;;;;5081882;28;20192;-66
2021/06/13 03:12:54;;;;;;;13.50;9.80;;;11.20;99.90;;;;;;5083741;28;20200;-67
2021/06/13 03:15:24;;;;;;;15.13;9.90;;;11.20;99.90;;;;;;5085608;28;20294;-67
2021/06/13 03:17:56;;;;;;;11.83;9.47;;;11.20;99.90;;;;;;5084817;28;20335;-66
2021/06/13 03:20:25;;;;;;;12.73;9.27;;;11.10;99.90;;;;;;5085049;28;20192;-66
2021/06/13 03:22:55;;;;;;;13.77;9.47;;;11.00;99.90;;;;;;5083318;28;20294;-66
2021/06/13 03:25:24;;;;;;;13.73;9.73;;;11.00;99.90;;;;;;5084963;28;20296;-66
2021/06/13 03:27:53;;;;;;;15.97;9.87;;;11.00;99.90;;;;;;5083279;28;20190;-66
2021/06/13 03:30:22;;;;;;;15.80;9.23;;;11.00;99.90;;;;;;5081180;28;20247;-66
2021/06/13 03:32:51;;;;;;;10.93;9.00;;;11.00;99.90;;;;;;5080504;28;20213;-65
2021/06/13 03:35:21;;;;;;;9.53;8.60;;;11.00;99.90;;;;;;5085415;28;20255;-66
2021/06/13 03:37:50;;;;;;;11.53;8.93;;;11.00;99.90;;;;;;5082348;28;20256;-65
2021/06/13 03:40:20;;;;;;;12.70;9.20;;;10.90;99.90;;;;;;5085349;28;20211;-66
2021/06/13 03:42:49;;;;;;;12.27;9.07;;;10.80;99.90;;;;;;5077232;28;20198;-66
2021/06/13 03:45:19;;;;;;;11.97;9.47;;;10.80;99.90;;;;;;5062652;28;20391;-66
2021/06/13 03:47:49;;;;;;;10.60;9.50;;;10.80;99.90;;;;;;5079331;28;20192;-66
2021/06/13 03:50:21;;;;;;;12.07;9.43;;;10.80;99.90;;;;;;5081009;28;20199;-66
2021/06/13 03:52:49;;;;;;;16.30;9.63;;;10.90;99.90;;;;;;5080679;28;20211;-66
2021/06/13 03:55:18;;;;;;;14.60;9.43;;;10.90;99.90;;;;;;5057766;28;20253;-66
2021/06/13 03:57:50;;;;;;;12.97;9.93;;;10.90;99.90;;;;;;5084342;28;20289;-66
2021/06/13 04:00:20;;;;;;;13.40;10.23;;;10.90;99.90;;;;;;5082474;28;20180;-66
2021/06/13 04:02:50;;;;;;;13.33;10.70;;;10.90;99.90;;;;;;5072866;28;20210;-66
2021/06/13 04:05:21;;;;;;;13.57;10.23;;;11.00;99.90;;;;;;5082237;28;20204;-66
2021/06/13 04:07:50;;;;;;;14.60;10.97;;;10.90;99.90;;;;;;5078912;28;20184;-66
2021/06/13 04:10:20;;;;;;;14.27;10.33;;;11.00;99.90;;;;;;5085377;28;20183;-66
2021/06/13 04:12:50;;;;;;;12.70;10.37;;;11.10;99.90;;;;;;5082789;28;20246;-66
2021/06/13 04:15:21;;;;;;;14.83;10.80;;;11.10;99.90;;;;;;5084500;28;20191;-66
2021/06/13 04:17:50;;;;;;;11.60;10.20;;;11.10;99.90;;;;;;5081735;28;20180;-66
2021/06/13 04:20:22;;;;;;;12.23;9.67;;;11.00;99.90;;;;;;5083439;28;20189;-66
2021/06/13 04:22:50;;;;;;;13.13;9.77;;;11.00;99.90;;;;;;5081115;28;20739;-66
2021/06/13 04:25:19;;;;;;;13.90;11.23;;;11.00;99.90;;;;;;5083570;28;20257;-66
2021/06/13 04:27:49;;;;;;;14.93;11.20;;;11.10;99.90;;;;;;5058954;28;20343;-66
2021/06/13 04:30:18;;;;;;;14.87;11.10;;;11.10;99.90;;;;;;5079635;28;20192;-66
2021/06/13 04:32:50;;;;;;;18.27;12.10;;;11.10;99.90;;;;;;5081591;28;20214;-65
2021/06/13 04:35:19;;;;;;;15.73;11.07;;;11.20;99.90;;;;;;5079206;28;20192;-65
2021/06/13 04:37:48;;;;;;;15.23;10.80;;;11.20;99.90;;;;;;5088950;28;20190;-66
2021/06/13 04:40:17;;;;;;;17.73;11.10;;;11.30;99.90;;;;;;5082685;28;20184;-66
2021/06/13 04:42:45;;;;;;;15.80;11.47;;;11.40;99.90;;;;;;5077607;28;20421;-66
2021/06/13 04:45:15;;;;;;;17.70;11.53;;;11.50;99.90;;;;;;5076838;28;20181;-66
2021/06/13 04:47:43;;;;;;;13.20;10.90;;;11.50;99.90;;;;;;5081908;28;20380;-65
2021/06/13 04:50:13;;;;;;;19.13;11.70;;;11.60;99.90;;;;;;5082358;28;20323;-66
2021/06/13 04:52:45;;;;;;;17.43;10.97;;;11.70;99.90;;;;;;5059022;28;20204;-66
2021/06/13 04:55:35;;;;;;;15.70;11.30;;;11.80;99.90;;;;;;5079496;28;20366;-66
2021/06/13 04:58:16;;;;;;;15.43;12.03;;;11.80;99.90;;;;;;5077247;28;20220;-66
2021/06/13 05:00:44;;;;;;;16.37;10.93;;;11.90;99.90;;;;;;5079333;28;20446;-65
2021/06/13 05:03:13;;;;;;;16.20;12.13;;;12.00;99.90;;;;;;5080505;28;20180;-65
2021/06/13 05:05:41;;;;;;;16.90;12.10;;;12.10;99.90;;;;;;5082233;28;20200;-65
2021/06/13 05:08:12;;;;;;;13.40;11.23;;;12.20;99.90;;;;;;5080985;28;20181;-66
2021/06/13 05:10:42;;;;;;;19.40;11.13;;;12.40;99.90;;;;;;5074400;28;20447;-65
2021/06/13 05:13:15;;;;;;;15.37;11.20;;;12.50;99.90;;;;;;5082879;28;20365;-66
2021/06/13 05:15:44;;;;;;;14.17;9.97;;;12.60;99.90;;;;;;5075958;28;20733;-66
2021/06/13 05:18:16;;;;;;;13.73;10.60;;;12.60;99.90;;;;;;5062850;28;20263;-65
2021/06/13 05:20:46;;;;;;;10.93;9.80;;;12.80;99.90;;;;;;5083201;28;20180;-66
2021/06/13 05:23:14;;;;;;;12.60;10.77;;;12.90;99.90;;;;;;5070034;28;20196;-66
2021/06/13 05:25:44;;;;;;;13.17;10.13;;;12.90;99.90;;;;;;5081792;28;20184;-66
2021/06/13 05:28:12;;;;;;;14.00;10.27;;;13.10;99.90;;;;;;5076934;28;20238;-66
2021/06/13 05:30:42;;;;;;;15.43;10.73;;;13.20;99.90;;;;;;5077185;28;20187;-65
2021/06/13 05:33:13;;;;;;;12.37;9.53;;;13.30;99.90;;;;;;5061149;28;20216;-65
2021/06/13 05:35:42;;;;;;;16.27;9.20;;;13.50;99.90;;;;;;5080730;28;20188;-67
2021/06/13 05:38:12;;;;;;;13.03;8.87;;;13.60;99.90;;;;;;5081325;28;20263;-66
2021/06/13 05:40:41;;;;;;;11.90;8.70;;;13.70;99.90;;;;;;5081472;28;20192;-66
2021/06/13 05:43:12;;;;;;;12.73;9.03;;;13.90;99.90;;;;;;5079643;28;20215;-66
2021/06/13 05:45:43;;;;;;;14.53;8.70;;;14.00;99.90;;;;;;5074679;28;20201;-66
2021/06/13 05:48:12;;;;;;;14.27;8.90;;;14.20;99.90;;;;;;5065275;28;20185;-66
2021/06/13 05:50:41;;;;;;;13.60;8.53;;;14.20;99.90;;;;;;5083085;28;20184;-66
2021/06/13 05:53:10;;;;;;;13.23;9.00;;;14.30;99.90;;;;;;5086524;28;20212;-66
2021/06/13 05:55:39;;;;;;;16.33;9.10;;;14.60;99.90;;;;;;5083144;28;20200;-66
2021/06/13 05:58:07;;;;;;;9.63;7.70;;;14.70;99.90;;;;;;5086565;28;20242;-66
2021/06/13 06:00:38;;;;;;;12.03;8.90;;;14.80;99.90;;;;;;5081804;28;20563;-65
2021/06/13 06:03:07;;;;;;;12.33;8.33;;;14.90;99.90;;;;;;5084626;28;20200;-66
2021/06/13 06:05:35;;;;;;;12.00;7.10;;;15.00;99.90;;;;;;5082011;28;20194;-66
2021/06/13 06:08:05;;;;;;;9.70;7.03;;;15.20;99.90;;;;;;5084552;28;20207;-66
2021/06/13 06:10:35;;;;;;;9.83;6.33;;;15.40;99.90;;;;;;5084724;28;20192;-66
2021/06/13 06:13:05;;;;;;;12.03;6.70;;;15.50;99.90;;;;;;5086348;28;20200;-66
2021/06/13 06:15:37;;;;;;;9.00;5.73;;;15.80;99.90;;;;;;5081315;28;20202;-66
2021/06/13 06:18:06;;;;;;;11.07;6.57;;;16.00;99.90;;;;;;5084178;28;20183;-66
2021/06/13 06:20:36;;;;;;;14.40;6.50;;;15.90;99.90;;;;;;5085936;28;20231;-66
2021/06/13 06:23:05;;;;;;;11.50;6.53;;;15.80;99.90;;;;;;5082056;28;20459;-66
2021/06/13 06:25:34;;;;;;;14.30;6.97;;;15.90;99.90;;;;;;5082709;28;20452;-66
2021/06/13 06:28:03;;;;;;;9.33;6.40;;;16.00;99.90;;;;;;5083363;28;20196;-66
2021/06/13 06:30:32;;;;;;;8.13;6.20;;;16.10;99.90;;;;;;5079183;28;20187;-66
2021/06/13 06:33:02;;;;;;;13.87;6.87;;;16.20;99.90;;;;;;5082142;28;20200;-66
2021/06/13 06:35:31;;;;;;;10.57;6.43;;;16.30;99.90;;;;;;5084975;28;20223;-66
2021/06/13 06:37:59;;;;;;;12.33;6.07;;;16.40;99.90;;;;;;5083076;28;20782;-66
2021/06/13 06:40:27;;;;;;;11.97;5.90;;;16.50;99.90;;;;;;5078274;28;20230;-66
2021/06/13 06:42:56;;;;;;;9.97;5.80;;;16.50;99.90;;;;;;5081195;28;20204;-66
2021/06/13 06:45:24;;;;;;;11.07;6.37;;;16.60;99.90;;;;;;5077911;28;20206;-66
2021/06/13 06:47:53;;;;;;;7.87;5.87;;;16.70;99.90;;;;;;5086975;28;20201;-66
2021/06/13 06:50:23;;;;;;;9.63;6.10;;;16.80;99.90;;;;;;5060611;28;20180;-66
2021/06/13 06:52:52;;;;;;;8.93;5.57;;;16.80;99.90;;;;;;5081282;28;20444;-65
2021/06/13 06:55:20;;;;;;;7.90;5.97;;;16.90;99.90;;;;;;5080780;28;20193;-66
2021/06/13 06:57:49;;;;;;;9.33;5.50;;;17.10;99.90;;;;;;5086907;28;20231;-66
2021/06/13 07:00:19;;;;;;;9.00;5.57;;;17.10;99.90;;;;;;5083466;28;20259;-66
2021/06/13 07:02:47;;;;;;;11.07;6.00;;;17.00;99.90;;;;;;5085145;28;20185;-66
2021/06/13 07:05:16;;;;;;;7.50;5.20;;;17.10;99.90;;;;;;5066278;28;20308;-66
2021/06/13 07:07:45;;;;;;;11.20;6.00;;;17.10;99.90;;;;;;5086116;28;20193;-66
2021/06/13 07:10:15;;;;;;;7.83;5.10;;;17.20;99.90;;;;;;5085838;28;20442;-65
2021/06/13 07:12:43;;;;;;;13.10;5.20;;;17.30;99.90;;;;;;5084875;28;20413;-66
2021/06/13 07:15:13;;;;;;;7.53;4.70;;;17.40;99.90;;;;;;5065914;28;20185;-66
2021/06/13 07:17:42;;;;;;;5.93;4.40;;;17.40;99.90;;;;;;5082813;28;20190;-66
2021/06/13 07:20:12;;;;;;;5.10;4.50;;;17.50;99.90;;;;;;5082747;28;20205;-66
2021/06/13 07:22:41;;;;;;;10.00;5.07;;;17.60;99.90;;;;;;5077831;28;20253;-66
2021/06/13 07:25:12;;;;;;;5.47;4.67;;;17.60;99.90;;;;;;5082822;28;20184;-67
2021/06/13 07:27:41;;;;;;;8.30;4.70;;;17.70;99.90;;;;;;5083030;28;20199;-66
2021/06/13 07:30:14;;;;;;;8.53;4.97;;;17.90;99.90;;;;;;5065625;28;20190;-66
2021/06/13 07:32:44;;;;;;;9.77;4.97;;;18.30;99.90;;;;;;5061894;28;20181;-66
2021/06/13 07:35:14;;;;;;;9.80;4.43;;;18.40;99.90;;;;;;5085445;28;20285;-66
2021/06/13 07:37:43;;;;;;;10.00;4.73;;;18.30;99.90;;;;;;5094663;28;20208;-66
2021/06/13 07:40:15;;;;;;;7.00;4.23;;;18.20;99.90;;;;;;5084115;28;20357;-66
2021/06/13 07:42:43;;;;;;;6.13;4.83;;;18.20;99.90;;;;;;5081009;28;20212;-67
2021/06/13 07:45:14;;;;;;;7.57;4.60;;;18.40;99.90;;;;;;5064248;28;20184;-66
2021/06/13 07:47:43;;;;;;;6.77;4.37;;;18.50;99.90;;;;;;5074395;28;20428;-66
2021/06/13 07:50:14;;;;;;;7.00;4.30;;;18.60;99.90;;;;;;5076590;28;20305;-66
2021/06/13 07:52:43;;;;;;;8.40;4.57;;;18.60;99.90;;;;;;5080881;28;20237;-66
2021/06/13 07:55:15;;;;;;;5.57;4.07;;;18.70;99.90;;;;;;5079449;28;20555;-66
2021/06/13 07:57:44;;;;;;;8.47;4.43;;;18.80;99.90;;;;;;5082919;28;20364;-67
2021/06/13 08:00:15;;;;;;;6.73;4.10;;;18.90;99.90;;;;;;5084246;28;20192;-65
2021/06/13 08:02:49;;;;;;;7.97;4.70;;;18.70;99.90;;;;;;5066820;28;20346;-67
2021/06/13 08:05:25;;;;;;;9.67;4.70;;;18.80;99.90;;;;;;5080145;28;20188;-66
2021/06/13 08:07:54;;;;;;;6.47;4.30;;;18.90;99.90;;;;;;5085798;28;20192;-66
2021/06/13 08:10:24;;;;;;;7.73;4.67;;;19.00;99.90;;;;;;5082113;28;20201;-66
2021/06/13 08:12:53;;;;;;;5.53;4.10;;;19.30;99.90;;;;;;5074897;28;20184;-65
2021/06/13 08:15:22;;;;;;;7.07;4.07;;;19.50;99.90;;;;;;5060023;28;20186;-66
2021/06/13 08:17:52;;;;;;;7.30;4.00;;;19.50;99.90;;;;;;5076361;28;20188;-66
2021/06/13 08:20:21;;;;;;;6.77;4.40;;;19.70;99.90;;;;;;5082344;28;20294;-65
2021/06/13 08:22:49;;;;;;;6.00;4.20;;;19.50;99.90;;;;;;5074374;28;20175;-67
2021/06/13 08:25:18;;;;;;;9.00;4.37;;;19.60;99.90;;;;;;5082960;28;20193;-66
2021/06/13 08:27:48;;;;;;;5.60;4.00;;;19.80;99.90;;;;;;5083789;28;20187;-67
2021/06/13 08:30:19;;;;;;;4.80;3.70;;;20.00;99.90;;;;;;5082633;28;20188;-65
2021/06/13 08:33:12;;;;;;;6.97;3.93;;;20.20;99.90;;;;;;5082981;28;20184;-66
2021/06/13 08:35:41;;;;;;;5.97;3.63;;;20.30;99.90;;;;;;5080834;28;20200;-66
2021/06/13 08:38:12;;;;;;;4.03;3.67;;;20.40;99.90;;;;;;5089580;28;20203;-66
2021/06/13 08:40:40;;;;;;;6.07;3.40;;;20.50;99.90;;;;;;5072624;28;20358;-67
2021/06/13 08:43:10;;;;;;;6.40;3.60;;;20.60;99.90;;;;;;5079224;28;20198;-65
2021/06/13 08:45:38;;;;;;;5.80;3.80;;;20.80;99.90;;;;;;5074456;28;20195;-66
2021/06/13 08:48:08;;;;;;;3.53;3.20;;;21.30;99.90;;;;;;5049009;28;20227;-67
2021/06/13 08:50:37;;;;;;;6.87;3.80;;;21.20;99.90;;;;;;5077508;28;20184;-66
2021/06/13 08:53:06;;;;;;;5.90;3.77;;;21.30;99.90;;;;;;5075687;28;20189;-67
2021/06/13 08:55:34;;;;;;;6.17;3.90;;;21.10;99.90;;;;;;5077649;28;20227;-66
2021/06/13 08:58:04;;;;;;;10.57;4.93;;;21.10;99.90;;;;;;5074711;28;20212;-67
2021/06/13 09:00:35;;;;;;;5.67;4.00;;;21.10;99.90;;;;;;5085138;28;20195;-67
2021/06/13 09:03:06;;;;;;;6.80;4.27;;;21.30;99.90;;;;;;5083007;28;20301;-67
2021/06/13 09:05:35;;;;;;;6.70;3.80;;;21.40;99.90;;;;;;5082300;28;20193;-67
2021/06/13 09:08:11;;;;;;;4.77;4.27;;;21.40;99.90;;;;;;5082841;28;20199;-67
2021/06/13 09:10:44;;;;;;;6.10;4.20;;;21.20;99.90;;;;;;5084550;28;20184;-67
2021/06/13 09:13:16;;;;;;;6.53;3.93;;;21.20;99.90;;;;;;5072801;28;20180;-67
2021/06/13 09:15:48;;;;;;;6.53;3.40;;;21.20;99.90;;;;;;5085169;28;21400;-67
2021/06/13 09:18:31;;;;;;;9.10;3.60;;;21.60;99.90;;;;;;5085146;28;20191;-67
2021/06/13 09:21:01;;;;;;;5.80;3.50;;;21.80;99.90;;;;;;5083323;28;20397;-67
2021/06/13 09:23:30;;;;;;;7.07;3.70;;;22.20;99.90;;;;;;5080544;28;20185;-66
2021/06/13 09:26:01;;;;;;;3.97;3.20;;;22.10;99.90;;;;;;5083956;28;20184;-67
2021/06/13 09:28:33;;;;;;;3.87;3.10;;;22.10;99.90;;;;;;5084112;28;20231;-66
2021/06/13 09:31:04;;;;;;;6.57;3.30;;;22.00;99.90;;;;;;5083652;28;20260;-67
2021/06/13 09:33:34;;;;;;;3.53;2.97;;;22.10;99.90;;;;;;5081510;28;20258;-67
2021/06/13 09:36:05;;;;;;;4.93;3.33;;;22.50;99.90;;;;;;5088381;28;20418;-67
2021/06/13 09:38:36;;;;;;;4.33;3.60;;;22.30;99.90;;;;;;5080729;28;20214;-67
2021/06/13 09:41:09;;;;;;;4.13;3.37;;;22.40;99.90;;;;;;5084557;28;20264;-66
2021/06/13 09:43:41;;;;;;;6.70;3.37;;;22.80;99.90;;;;;;5083810;28;20188;-67
2021/06/13 09:46:13;;;;;;;4.43;2.90;;;23.10;99.90;;;;;;5084345;28;20186;-67
2021/06/13 09:48:45;;;;;;;5.87;3.50;;;23.10;99.90;;;;;;5072058;28;20184;-65
2021/06/13 09:51:15;;;;;;;5.07;3.50;;;23.20;99.90;;;;;;5083978;28;20916;-65
2021/06/13 09:53:47;;;;;;;5.63;4.20;;;23.20;99.90;;;;;;5084312;28;20184;-65
2021/06/13 09:56:26;;;;;;;10.00;3.60;;;23.50;99.90;;;;;;5083371;28;20217;-65
2021/06/13 09:59:00;;;;;;;10.90;4.70;;;23.80;99.90;;;;;;5075920;28;20209;-65
2021/06/13 10:01:37;;;;;;;10.90;5.10;;;24.30;99.90;;;;;;5082595;28;20184;-65
2021/06/13 10:04:08;;;;;;;7.53;3.87;;;24.20;99.90;;;;;;5077705;28;20255;-64
2021/06/13 10:06:38;;;;;;;8.55;4.47;;;24.10;99.90;;;;;;5081771;28;20231;-65
2021/06/13 10:09:08;;;;;;;6.68;3.80;;;24.10;99.90;;;;;;5078669;28;20184;-65
2021/06/13 10:11:39;;;;;;;10.48;4.00;;;24.00;99.90;;;;;;5081549;28;20195;-65
2021/06/13 10:14:09;;;;;;;9.73;3.60;;;24.00;99.90;;;;;;5080246;28;20181;-65
2021/06/13 10:16:41;;;;;;;8.63;4.00;;;24.00;99.90;;;;;;5083570;28;20188;-65
2021/06/13 10:19:14;;;;;;;7.43;3.80;;;23.90;99.90;;;;;;5063392;28;20193;-65
2021/06/13 10:21:47;;;;;;;9.23;4.15;;;24.00;99.90;;;;;;5075120;28;20227;-65
2021/06/13 10:24:18;;;;;;;5.07;4.00;;;24.00;99.90;;;;;;5066702;28;20215;-65
2021/06/13 10:26:49;;;;;;;5.45;4.07;;;24.10;99.90;;;;;;5064471;28;20190;-65
2021/06/13 10:29:20;;;;;;;3.97;3.65;;;24.30;99.90;;;;;;5081258;28;20182;-64
2021/06/13 10:31:52;;;;;;;6.50;3.97;;;24.10;99.90;;;;;;5082891;28;20185;-64
2021/06/13 10:34:21;;;;;;;11.38;3.80;;;24.30;99.90;;;;;;5081357;28;20181;-66
2021/06/13 10:36:50;;;;;;;8.57;3.30;;;24.60;99.90;;;;;;5093661;28;20194;-65
2021/06/13 10:39:22;;;;;;;4.82;3.13;;;24.90;99.90;;;;;;5077189;28;20195;-65
2021/06/13 10:41:53;;;;;;;5.57;3.45;;;25.60;99.90;;;;;;5087165;28;20236;-65
2021/06/13 10:44:24;;;;;;;4.50;3.45;;;25.80;99.90;;;;;;5085351;28;20186;-65
2021/06/13 10:46:56;;;;;;;8.52;3.90;;;26.00;99.90;;;;;;5087107;28;20183;-65
2021/06/13 10:49:32;;;;;;;7.22;3.38;;;25.90;99.90;;;;;;5080490;28;20238;-65
2021/06/13 10:52:09;;;;;;;5.10;3.83;;;25.80;99.90;;;;;;5086595;28;20190;-65
2021/06/13 10:54:39;;;;;;;4.63;3.97;;;26.20;99.90;;;;;;5086196;28;20185;-65
2021/06/13 10:57:39;;;;;;;6.95;4.35;;;26.60;99.90;;;;;;5084435;28;20285;-65
2021/06/13 11:00:31;;;;;;;6.65;3.72;;;26.70;99.90;;;;;;5048678;28;20208;-65
2021/06/13 11:03:02;;;;;;;8.57;5.13;;;26.80;99.90;;;;;;5080794;28;20180;-65
2021/06/13 11:05:50;;;;;;;9.95;4.90;;;26.60;99.90;;;;;;5081172;28;20293;-64
2021/06/13 11:08:19;;;;;;;7.32;4.80;;;26.60;99.90;;;;;;5078100;28;20181;-67
2021/06/13 11:10:48;;;;;;;5.97;5.15;;;26.80;99.90;;;;;;5079080;28;20185;-64
2021/06/13 11:13:28;;;;;;;8.48;4.72;;;26.80;99.90;;;;;;5067205;28;20569;-67
2021/06/13 11:16:02;;;;;;;7.85;4.38;;;26.20;99.90;;;;;;5065181;28;20212;-67
2021/06/13 11:18:35;;;;;;;7.18;5.00;;;26.20;99.90;;;;;;5076229;28;20208;-67
2021/06/13 11:21:07;;;;;;;6.25;4.53;;;26.20;99.90;;;;;;5081606;28;20204;-66
2021/06/13 11:23:55;;;;;;;5.35;4.68;;;26.10;99.90;;;;;;5078907;28;20335;-65
2021/06/13 11:26:39;;;;;;;6.70;4.63;;;26.00;99.90;;;;;;5084155;28;20183;-67
2021/06/13 11:29:12;;;;;;;8.43;5.03;;;26.10;99.90;;;;;;5079148;28;20389;-67
2021/06/13 11:31:52;;;;;;;8.10;4.93;;;26.40;99.90;;;;;;5083282;28;20257;-66
2021/06/13 11:34:23;;;;;;;7.20;5.03;;;26.50;99.90;;;;;;5081221;28;20496;-66
2021/06/13 11:36:52;;;;;;;9.88;5.55;;;26.40;99.90;;;;;;5081654;28;20276;-66
2021/06/13 11:39:32;;;;;;;8.40;4.95;;;26.40;99.90;;;;;;5084401;28;20392;-66
2021/06/13 11:42:17;;;;;;;10.02;5.55;;;26.30;99.90;;;;;;5082510;28;20172;-66
2021/06/13 11:44:55;;;;;;;7.13;5.23;;;26.40;99.90;;;;;;5084763;28;20183;-66
2021/06/13 11:47:37;;;;;;;6.87;5.10;;;26.00;99.90;;;;;;5076821;28;20238;-66
2021/06/13 11:50:15;;;;;;;10.13;5.47;;;26.00;99.90;;;;;;5082107;28;20237;-66
2021/06/13 11:53:11;;;;;;;8.30;5.03;;;25.90;99.90;;;;;;5083658;28;20322;-65
2021/06/13 11:55:56;;;;;;;5.83;4.33;;;26.00;99.90;;;;;;5081730;28;20261;-66
2021/06/13 11:58:24;;;;;;;6.67;4.30;;;26.20;99.90;;;;;;5078207;28;20196;-66
2021/06/13 12:00:57;;;;;;;7.10;5.13;;;26.20;99.90;;;;;;5079610;28;20180;-66
2021/06/13 12:03:25;;;;;;;9.33;5.40;;;26.10;99.90;;;;;;5059194;28;20219;-66
2021/06/13 12:06:03;;;;;;;10.83;5.80;;;26.10;99.90;;;;;;5079360;28;20254;-66
2021/06/13 12:08:31;;;;;;;5.57;4.93;;;25.80;99.90;;;;;;5079767;28;20755;-66
2021/06/13 12:11:00;;;;;;;7.20;4.67;;;25.70;99.90;;;;;;5064013;28;20179;-66
2021/06/13 12:13:29;;;;;;;8.17;5.93;;;25.70;99.90;;;;;;5077342;28;20188;-65
2021/06/13 12:15:57;;;;;;;8.47;5.80;;;25.80;99.90;;;;;;5058272;28;20457;-65
2021/06/13 12:18:29;;;;;;;8.30;5.37;;;25.50;99.90;;;;;;5060242;28;20191;-66
2021/06/13 12:21:02;;;;;;;8.10;5.80;;;25.30;99.90;;;;;;5079275;28;20187;-65
2021/06/13 12:23:38;;;;;;;9.47;5.47;;;24.90;99.90;;;;;;5080403;28;20199;-65
2021/06/13 12:29:01;;;;;;;13.03;5.57;;;25.10;99.90;;;;;;5078618;28;20373;-65
2021/06/13 12:31:30;;;;;;;7.73;5.40;;;25.30;99.90;;;;;;5078357;28;20182;-65
2021/06/13 12:33:59;;;;;;;10.07;5.70;;;25.40;99.90;;;;;;5081281;28;20226;-66
2021/06/13 12:36:29;;;;;;;10.73;5.87;;;25.30;99.90;;;;;;5078033;28;20204;-65
2021/06/13 12:38:57;;;;;;;6.13;5.47;;;25.00;99.90;;;;;;5077990;28;20194;-65
2021/06/13 12:41:25;;;;;;;11.57;5.23;;;24.80;99.90;;;;;;5077187;28;20190;-64
2021/06/13 12:43:57;;;;;;;7.37;5.23;;;24.90;99.90;;;;;;5075701;28;20204;-64
2021/06/13 12:46:37;;;;;;;10.20;5.43;;;25.10;99.90;;;;;;5077885;28;20193;-65
2021/06/13 12:49:06;;;;;;;7.27;5.57;;;25.40;99.90;;;;;;5083586;28;20191;-64
2021/06/13 12:51:36;;;;;;;10.87;5.53;;;25.50;99.90;;;;;;5079432;28;20194;-64
2021/06/13 12:54:14;;;;;;;6.83;4.80;;;25.40;99.90;;;;;;5080474;28;20198;-64
2021/06/13 12:56:44;;;;;;;9.90;5.73;;;25.70;99.90;;;;;;5081148;28;20229;-64
2021/06/13 12:59:13;;;;;;;8.83;5.13;;;25.80;99.90;;;;;;5061368;28;20225;-64
2021/06/13 13:01:42;;;;;;;8.90;6.00;;;25.80;99.90;;;;;;5078892;28;20185;-65
2021/06/13 13:04:11;;;;;;;10.07;5.20;;;25.70;99.90;;;;;;5080965;28;20178;-65